createdAt,value
2022-10-25T00:01:28.962Z,0.40
2022-10-25T00:03:56.934Z,0.30
2022-10-25T00:06:24.413Z,0.40
2022-10-25T00:08:51.524Z,0.40
2022-10-25T00:11:28.097Z,0.37
2022-10-25T00:13:57.502Z,0.37
2022-10-25T00:16:27.624Z,0.40
2022-10-25T00:18:55.097Z,0.45
2022-10-25T00:21:22.258Z,0.30
2022-10-25T00:23:50.273Z,0.25
2022-10-25T00:26:17.775Z,0.43
2022-10-25T00:28:44.685Z,0.20
2022-10-25T00:31:14.537Z,0.32
2022-10-25T00:33:42.480Z,0.40
2022-10-25T00:36:12.434Z,0.40
2022-10-25T00:38:39.803Z,0.30
2022-10-25T00:41:07.855Z,0.40
2022-10-25T00:43:54.066Z,0.35
2022-10-25T00:46:21.121Z,0.47
2022-10-25T00:49:03.142Z,0.30
2022-10-25T00:51:52.733Z,0.30
2022-10-25T00:54:26.752Z,0.37
2022-10-25T00:56:54.957Z,0.50
2022-10-25T00:59:26.578Z,0.45
2022-10-25T01:01:57.629Z,0.40
2022-10-25T01:04:31.279Z,0.50
2022-10-25T01:06:59.143Z,0.35
2022-10-25T01:09:29.723Z,0.35
2022-10-25T01:11:56.649Z,0.30
2022-10-25T01:14:24.061Z,0.30
2022-10-25T01:17:24.624Z,0.30
2022-10-25T01:20:30.269Z,0.30
2022-10-25T01:23:31.335Z,0.32
2022-10-25T01:26:10.351Z,0.28
2022-10-25T01:29:14.460Z,0.30
2022-10-25T01:32:11.302Z,0.30
2022-10-25T01:35:15.729Z,0.22
2022-10-25T01:38:00.918Z,0.32
2022-10-25T01:41:05.243Z,0.10
2022-10-25T01:43:51.786Z,0.40
2022-10-25T01:46:24.097Z,0.30
2022-10-25T01:49:09.041Z,0.22
2022-10-25T01:51:37.562Z,0.65
2022-10-25T01:54:26.592Z,0.30
2022-10-25T01:57:17.641Z,0.30
2022-10-25T01:59:56.456Z,0.30
2022-10-25T02:02:30.641Z,0.50
2022-10-25T02:05:14.832Z,0.40
2022-10-25T02:07:44.324Z,0.30
2022-10-25T02:10:24.815Z,0.30
2022-10-25T02:13:13.476Z,0.30
2022-10-25T02:15:49.010Z,0.50
2022-10-25T02:18:21.290Z,0.30
2022-10-25T02:20:50.645Z,0.60
2022-10-25T02:23:18.822Z,0.50
2022-10-25T02:25:47.157Z,0.47
2022-10-25T02:28:16.978Z,0.40
2022-10-25T02:30:45.160Z,0.50
2022-10-25T02:33:12.583Z,0.40
2022-10-25T02:35:39.930Z,0.40
2022-10-25T02:38:07.241Z,0.50
2022-10-25T02:40:34.827Z,0.40
2022-10-25T02:43:02.108Z,0.47
2022-10-25T02:45:29.437Z,0.40
2022-10-25T02:47:56.558Z,0.40
2022-10-25T02:50:23.708Z,0.40
2022-10-25T02:52:50.890Z,0.30
2022-10-25T02:55:17.826Z,0.28
2022-10-25T02:57:44.693Z,0.40
2022-10-25T03:02:40.121Z,0.43
2022-10-25T03:05:07.272Z,0.40
2022-10-25T03:07:34.145Z,0.60
2022-10-25T03:10:01.031Z,0.55
2022-10-25T03:12:27.910Z,0.50
2022-10-25T03:14:54.803Z,0.40
2022-10-25T03:17:21.697Z,0.50
2022-10-25T03:19:48.555Z,1.20
2022-10-25T03:22:15.456Z,1.27
2022-10-25T03:24:42.361Z,1.60
2022-10-25T03:27:09.340Z,1.30
2022-10-25T03:29:36.233Z,1.10
2022-10-25T03:32:05.552Z,2.00
2022-10-25T03:34:32.546Z,1.87
2022-10-25T03:36:59.500Z,2.35
2022-10-25T03:39:26.543Z,1.80
2022-10-25T03:41:53.441Z,1.40
2022-10-25T03:44:20.513Z,1.75
2022-10-25T03:46:47.388Z,0.80
2022-10-25T03:49:14.294Z,0.68
2022-10-25T03:51:41.211Z,0.50
2022-10-25T03:54:08.077Z,0.47
2022-10-25T03:56:34.974Z,0.70
2022-10-25T03:59:01.861Z,0.60
2022-10-25T04:01:28.901Z,0.30
2022-10-25T04:03:55.912Z,0.40
2022-10-25T04:06:24.309Z,0.40
2022-10-25T04:08:51.202Z,0.47
2022-10-25T04:11:18.094Z,0.65
2022-10-25T04:13:44.990Z,0.40
2022-10-25T04:16:13.826Z,0.50
2022-10-25T04:18:42.695Z,0.32
2022-10-25T04:21:09.622Z,0.30
2022-10-25T04:23:36.548Z,0.30
2022-10-25T04:26:03.465Z,0.57
2022-10-25T04:28:30.403Z,0.40
2022-10-25T04:30:57.290Z,0.40
2022-10-25T04:33:24.178Z,0.37
2022-10-25T04:35:56.528Z,0.40
2022-10-25T04:38:24.480Z,0.30
2022-10-25T04:40:56.323Z,0.50
2022-10-25T04:43:23.967Z,0.32
2022-10-25T04:45:51.274Z,0.25
2022-10-25T04:48:18.749Z,0.40
2022-10-25T04:50:45.707Z,0.30
2022-10-25T04:53:12.751Z,0.25
2022-10-25T04:55:40.157Z,0.20
2022-10-25T04:58:07.073Z,0.30
2022-10-25T05:00:34.004Z,0.17
2022-10-25T05:03:01.018Z,0.20
2022-10-25T05:05:28.364Z,0.20
2022-10-25T05:07:55.267Z,0.20
2022-10-25T05:10:22.227Z,0.13
2022-10-25T05:12:49.319Z,0.28
2022-10-25T05:15:16.447Z,0.20
2022-10-25T05:17:43.333Z,0.10
2022-10-25T05:20:10.671Z,0.20
2022-10-25T05:22:37.592Z,0.30
2022-10-25T05:25:05.244Z,0.20
2022-10-25T05:27:32.367Z,0.20
2022-10-25T05:29:59.430Z,0.10
2022-10-25T05:32:26.395Z,0.75
2022-10-25T05:34:53.367Z,0.20
2022-10-25T05:37:20.237Z,0.22
2022-10-25T05:39:47.091Z,0.20
2022-10-25T05:42:13.999Z,0.25
2022-10-25T05:44:40.874Z,0.20
2022-10-25T05:47:07.784Z,0.30
2022-10-25T05:49:39.686Z,0.20
2022-10-25T05:52:07.305Z,0.20
2022-10-25T05:54:34.339Z,0.25
2022-10-25T05:57:01.331Z,0.28
2022-10-25T05:59:28.179Z,0.25
2022-10-25T06:01:55.216Z,0.40
2022-10-25T06:04:22.892Z,0.28
2022-10-25T06:06:52.530Z,0.28
2022-10-25T06:09:19.455Z,0.10
2022-10-25T06:11:46.446Z,0.20
2022-10-25T06:14:13.498Z,0.30
2022-10-25T06:16:40.571Z,0.17
2022-10-25T06:19:07.873Z,0.30
2022-10-25T06:21:34.995Z,0.30
2022-10-25T06:24:02.467Z,0.10
2022-10-25T06:26:30.668Z,0.10
2022-10-25T06:29:00.179Z,0.17
2022-10-25T06:31:28.104Z,0.20
2022-10-25T06:33:55.174Z,0.22
2022-10-25T06:36:24.612Z,0.30
2022-10-25T06:38:51.876Z,0.40
2022-10-25T06:41:28.068Z,0.20
2022-10-25T06:43:55.703Z,0.40
2022-10-25T06:46:33.907Z,0.13
2022-10-25T06:49:02.266Z,0.20
2022-10-25T06:51:29.909Z,0.40
2022-10-25T06:54:01.727Z,0.32
2022-10-25T06:56:29.255Z,0.30
2022-10-25T06:58:56.613Z,0.25
2022-10-25T07:01:25.381Z,0.30
2022-10-25T07:03:56.294Z,0.10
2022-10-25T07:06:29.349Z,0.20
2022-10-25T07:08:58.998Z,0.30
2022-10-25T07:11:27.585Z,0.50
2022-10-25T07:13:56.184Z,0.50
2022-10-25T07:16:23.324Z,0.37
2022-10-25T07:18:50.302Z,0.40
2022-10-25T07:21:20.307Z,0.32
2022-10-25T07:23:48.293Z,0.40
2022-10-25T07:26:34.958Z,0.45
2022-10-25T07:29:04.129Z,0.50
2022-10-25T07:31:33.773Z,0.40
2022-10-25T07:34:02.366Z,0.40
2022-10-25T07:36:29.353Z,0.47
2022-10-25T07:38:57.134Z,0.50
2022-10-25T07:41:25.092Z,0.40
2022-10-25T07:43:52.116Z,0.43
2022-10-25T07:46:19.093Z,0.47
2022-10-25T07:48:46.015Z,0.50
2022-10-25T07:51:15.342Z,0.60
2022-10-25T07:53:42.644Z,0.60
2022-10-25T07:56:17.573Z,0.43
2022-10-25T07:58:47.885Z,0.47
2022-10-25T08:01:20.754Z,0.60
2022-10-25T08:03:47.720Z,0.70
2022-10-25T08:06:14.693Z,0.47
2022-10-25T08:08:41.626Z,0.60
2022-10-25T08:11:08.667Z,1.15
2022-10-25T08:13:37.580Z,0.60
2022-10-25T08:16:05.755Z,0.50
2022-10-25T08:18:33.294Z,0.45
2022-10-25T08:21:03.599Z,0.50
2022-10-25T08:23:31.756Z,0.43
2022-10-25T08:25:59.300Z,0.70
2022-10-25T08:28:26.357Z,0.50
2022-10-25T08:30:56.222Z,0.45
2022-10-25T08:33:25.294Z,0.70
2022-10-25T08:35:52.302Z,0.60
2022-10-25T08:38:19.277Z,0.85
2022-10-25T08:41:00.588Z,0.70
2022-10-25T08:43:46.906Z,0.70
2022-10-25T08:46:28.829Z,0.60
2022-10-25T08:49:07.134Z,0.60
2022-10-25T08:51:38.418Z,0.57
2022-10-25T08:54:37.602Z,0.35
2022-10-25T08:57:17.097Z,0.47
2022-10-25T08:59:48.635Z,0.50
2022-10-25T09:02:39.551Z,0.40
2022-10-25T09:05:38.882Z,0.40
2022-10-25T09:08:16.653Z,0.30
2022-10-25T09:10:58.707Z,0.70
2022-10-25T09:13:33.016Z,0.55
2022-10-25T09:16:16.419Z,0.57
2022-10-25T09:18:55.014Z,0.40
2022-10-25T09:21:26.141Z,0.40
2022-10-25T09:24:04.971Z,0.65
2022-10-25T09:27:00.759Z,0.65
2022-10-25T09:29:33.398Z,0.57
2022-10-25T09:32:02.213Z,0.40
2022-10-25T09:34:35.330Z,0.60
2022-10-25T09:37:31.408Z,0.50
2022-10-25T09:40:06.980Z,0.43
2022-10-25T09:42:59.288Z,0.30
2022-10-25T09:45:32.539Z,0.37
2022-10-25T09:48:26.932Z,0.82
2022-10-25T09:51:27.484Z,0.50
2022-10-25T09:53:55.273Z,0.90
2022-10-25T09:56:22.181Z,0.45
2022-10-25T09:58:49.166Z,0.30
2022-10-25T10:01:21.446Z,0.60
2022-10-25T10:03:52.425Z,0.43
2022-10-25T10:06:32.386Z,0.50
2022-10-25T10:09:09.284Z,0.50
2022-10-25T10:11:37.047Z,0.60
2022-10-25T10:14:10.209Z,0.60
2022-10-25T10:16:45.150Z,0.50
2022-10-25T10:19:23.782Z,0.40
2022-10-25T10:22:00.089Z,0.60
2022-10-25T10:24:36.106Z,0.60
2022-10-25T10:27:07.018Z,0.60
2022-10-25T10:29:58.055Z,0.40
2022-10-25T10:32:29.993Z,0.50
2022-10-25T10:34:58.323Z,0.30
2022-10-25T10:37:28.198Z,0.45
2022-10-25T10:40:12.911Z,0.50
2022-10-25T10:42:43.109Z,0.85
2022-10-25T10:45:17.705Z,0.50
2022-10-25T10:47:50.271Z,0.50
2022-10-25T10:50:23.193Z,0.57
2022-10-25T10:53:14.735Z,0.50
2022-10-25T10:55:51.294Z,0.45
2022-10-25T10:58:39.961Z,0.50
2022-10-25T11:01:10.828Z,0.60
2022-10-25T11:03:59.208Z,0.40
2022-10-25T11:06:33.311Z,0.57
2022-10-25T11:09:19.495Z,0.30
2022-10-25T11:12:07.881Z,0.50
2022-10-25T11:14:34.940Z,0.30
2022-10-25T11:17:29.407Z,0.50
2022-10-25T11:20:08.837Z,0.50
2022-10-25T11:25:34.360Z,0.40
2022-10-25T11:28:21.681Z,0.60
2022-10-25T11:31:25.857Z,0.30
2022-10-25T11:34:17.976Z,0.30
2022-10-25T11:37:09.720Z,0.25
2022-10-25T11:39:54.018Z,0.43
2022-10-25T11:42:50.998Z,0.43
2022-10-25T11:45:36.070Z,0.32
2022-10-25T11:48:29.838Z,0.50
2022-10-25T11:51:25.260Z,0.57
2022-10-25T11:54:26.996Z,0.50
2022-10-25T11:57:22.051Z,0.37
2022-10-25T12:00:10.354Z,0.57
2022-10-25T12:02:55.554Z,0.43
2022-10-25T12:05:28.674Z,0.25
2022-10-25T12:08:08.026Z,0.52
2022-10-25T12:10:39.962Z,0.30
2022-10-25T12:13:16.163Z,0.30
2022-10-25T12:15:49.516Z,0.40
2022-10-25T12:18:36.635Z,0.50
2022-10-25T12:21:04.584Z,0.43
2022-10-25T12:23:44.152Z,0.40
2022-10-25T12:26:40.307Z,0.20
2022-10-25T12:29:17.413Z,0.60
2022-10-25T12:31:56.904Z,0.37
2022-10-25T12:34:37.952Z,0.40
2022-10-25T12:37:16.859Z,0.40
2022-10-25T12:39:45.433Z,0.62
2022-10-25T12:42:18.079Z,0.60
2022-10-25T12:47:28.602Z,0.70
2022-10-25T12:53:02.425Z,0.30
2022-10-25T12:56:07.292Z,1.48
2022-10-25T12:59:12.048Z,0.60
2022-10-25T13:01:50.684Z,0.60
2022-10-25T13:04:51.249Z,0.60
2022-10-25T13:07:19.167Z,0.77
2022-10-25T13:09:46.330Z,0.50
2022-10-25T13:12:15.971Z,0.70
2022-10-25T13:14:46.113Z,0.75
2022-10-25T13:17:19.182Z,0.70
2022-10-25T13:19:54.642Z,0.50
2022-10-25T13:22:28.426Z,0.50
2022-10-25T13:24:56.884Z,0.60
2022-10-25T13:27:25.599Z,0.82
2022-10-25T13:30:26.205Z,0.65
2022-10-25T13:33:22.826Z,0.60
2022-10-25T13:35:49.904Z,0.80
2022-10-25T13:38:26.166Z,0.75
2022-10-25T13:41:13.269Z,0.55
2022-10-25T13:44:02.699Z,0.60
2022-10-25T13:46:41.204Z,1.00
2022-10-25T13:49:33.070Z,0.60
2022-10-25T13:52:07.179Z,0.88
2022-10-25T13:54:43.684Z,0.80
2022-10-25T13:57:48.531Z,0.70
2022-10-25T14:00:21.751Z,0.80
2022-10-25T14:03:13.093Z,0.95
2022-10-25T14:05:55.294Z,0.90
2022-10-25T14:08:38.767Z,1.10
2022-10-25T14:11:18.923Z,0.90
2022-10-25T14:14:04.542Z,1.02
2022-10-25T14:16:53.376Z,0.80
2022-10-25T14:19:46.308Z,1.10
2022-10-25T14:22:23.340Z,1.00
2022-10-25T14:24:53.921Z,1.65
2022-10-25T14:27:33.875Z,1.12
2022-10-25T14:30:24.504Z,0.80
2022-10-25T14:32:54.788Z,0.88
2022-10-25T14:35:24.047Z,0.95
2022-10-25T14:37:51.101Z,0.82
2022-10-25T14:40:24.138Z,1.00
2022-10-25T14:42:54.723Z,0.95
2022-10-25T14:45:26.958Z,1.00
2022-10-25T14:47:53.820Z,0.88
2022-10-25T14:50:23.996Z,1.27
2022-10-25T14:52:52.234Z,1.40
2022-10-25T14:55:30.134Z,1.02
2022-10-25T14:57:59.605Z,0.90
2022-10-25T15:00:26.692Z,1.12
2022-10-25T15:03:01.392Z,1.35
2022-10-25T15:05:28.701Z,1.20
2022-10-25T15:07:57.547Z,1.23
2022-10-25T15:10:30.558Z,1.62
2022-10-25T15:13:04.329Z,1.37
2022-10-25T15:15:46.728Z,1.30
2022-10-25T15:18:32.225Z,1.67
2022-10-25T15:21:14.610Z,1.80
2022-10-25T15:23:44.229Z,1.77
2022-10-25T15:26:26.771Z,1.70
2022-10-25T15:29:01.771Z,1.87
2022-10-25T15:31:30.803Z,1.60
2022-10-25T15:34:05.715Z,1.77
2022-10-25T15:36:34.049Z,1.40
2022-10-25T15:39:09.374Z,1.58
2022-10-25T15:41:38.569Z,1.30
2022-10-25T15:44:05.476Z,1.90
2022-10-25T15:46:34.500Z,1.90
2022-10-25T15:49:04.714Z,1.80
2022-10-25T15:51:34.547Z,1.77
2022-10-25T15:54:01.661Z,2.40
2022-10-25T15:56:29.239Z,2.50
2022-10-25T15:58:58.756Z,2.25
2022-10-25T16:01:26.026Z,2.17
2022-10-25T16:03:53.041Z,2.17
2022-10-25T16:06:19.944Z,2.20
2022-10-25T16:08:46.849Z,2.40
2022-10-25T16:11:17.535Z,2.30
2022-10-25T16:13:48.764Z,2.33
2022-10-25T16:16:43.305Z,2.10
2022-10-25T16:19:15.106Z,2.30
2022-10-25T16:21:42.336Z,2.10
2022-10-25T16:24:09.849Z,2.50
2022-10-25T16:26:41.743Z,2.60
2022-10-25T16:29:17.052Z,2.12
2022-10-25T16:31:44.207Z,2.05
2022-10-25T16:34:11.654Z,1.80
2022-10-25T16:36:38.787Z,1.75
2022-10-25T16:39:07.770Z,1.80
2022-10-25T16:41:38.694Z,2.05
2022-10-25T16:44:06.212Z,2.00
2022-10-25T16:46:33.130Z,1.73
2022-10-25T16:49:02.003Z,1.80
2022-10-25T16:51:29.431Z,1.75
2022-10-25T16:53:57.361Z,1.70
2022-10-25T16:56:24.331Z,2.45
2022-10-25T16:58:51.298Z,2.92
2022-10-25T17:01:36.416Z,1.95
2022-10-25T17:04:05.450Z,2.28
2022-10-25T17:06:47.746Z,2.17
2022-10-25T17:09:14.756Z,2.20
2022-10-25T17:11:41.659Z,1.90
2022-10-25T17:14:12.115Z,1.80
2022-10-25T17:16:45.096Z,2.00
2022-10-25T17:19:12.870Z,1.80
2022-10-25T17:21:40.042Z,1.95
2022-10-25T17:24:09.589Z,1.80
2022-10-25T17:26:36.968Z,2.25
2022-10-25T17:29:04.184Z,2.00
2022-10-25T17:31:32.742Z,2.00
2022-10-25T17:34:03.548Z,2.00
2022-10-25T17:36:33.381Z,2.22
2022-10-25T17:39:01.085Z,2.00
2022-10-25T17:41:28.262Z,2.08
2022-10-25T17:43:56.889Z,2.08
2022-10-25T17:46:27.756Z,1.60
2022-10-25T17:48:56.584Z,2.17
2022-10-25T17:51:24.040Z,2.20
2022-10-25T17:53:54.207Z,1.65
2022-10-25T17:56:23.341Z,1.73
2022-10-25T17:58:51.159Z,2.00
2022-10-25T18:01:21.475Z,1.75
2022-10-25T18:03:48.576Z,1.62
2022-10-25T18:06:18.187Z,1.55
2022-10-25T18:08:48.275Z,1.70
2022-10-25T18:11:22.368Z,1.45
2022-10-25T18:13:53.872Z,1.70
2022-10-25T18:16:22.461Z,1.62
2022-10-25T18:18:49.540Z,1.67
2022-10-25T18:21:16.576Z,1.50
2022-10-25T18:23:44.151Z,2.05
2022-10-25T18:26:13.225Z,1.73
2022-10-25T18:28:40.340Z,1.85
2022-10-25T18:31:09.590Z,2.08
2022-10-25T18:33:38.772Z,1.42
2022-10-25T18:36:08.098Z,1.48
2022-10-25T18:38:35.354Z,1.77
2022-10-25T18:41:07.313Z,2.00
2022-10-25T18:43:34.321Z,1.73
2022-10-25T18:46:01.616Z,1.90
2022-10-25T18:48:28.831Z,1.67
2022-10-25T18:50:55.930Z,1.70
2022-10-25T18:53:22.883Z,1.70
2022-10-25T18:55:51.359Z,1.60
2022-10-25T18:58:18.363Z,1.80
2022-10-25T19:00:46.474Z,1.70
2022-10-25T19:03:15.110Z,1.45
2022-10-25T19:05:43.074Z,1.50
2022-10-25T19:08:11.648Z,1.70
2022-10-25T19:10:40.400Z,1.70
2022-10-25T19:13:08.785Z,1.45
2022-10-25T19:15:35.646Z,1.73
2022-10-25T19:18:02.520Z,1.40
2022-10-25T19:20:29.499Z,1.83
2022-10-25T19:22:58.726Z,2.03
2022-10-25T19:25:29.853Z,1.73
2022-10-25T19:27:57.126Z,1.37
2022-10-25T19:30:24.903Z,1.73
2022-10-25T19:32:52.063Z,1.40
2022-10-25T19:35:19.696Z,1.67
2022-10-25T19:37:46.996Z,1.50
2022-10-25T19:40:14.218Z,1.52
2022-10-25T19:42:41.097Z,1.30
2022-10-25T19:45:08.249Z,1.33
2022-10-25T19:47:35.998Z,1.87
2022-10-25T19:50:05.595Z,1.87
2022-10-25T19:52:38.698Z,1.60
2022-10-25T19:55:06.925Z,1.85
2022-10-25T19:57:35.056Z,1.20
2022-10-25T20:00:02.328Z,1.23
2022-10-25T20:02:29.693Z,1.17
2022-10-25T20:04:56.746Z,1.40
2022-10-25T20:07:23.644Z,1.40
2022-10-25T20:09:50.629Z,1.90
2022-10-25T20:12:17.581Z,1.30
2022-10-25T20:14:44.453Z,1.25
2022-10-25T20:17:13.294Z,1.60
2022-10-25T20:19:40.231Z,1.70
2022-10-25T20:22:07.152Z,1.60
2022-10-25T20:24:34.104Z,1.55
2022-10-25T20:27:01.995Z,1.73
2022-10-25T20:29:29.319Z,1.55
2022-10-25T20:31:56.267Z,1.60
2022-10-25T20:34:23.192Z,1.80
2022-10-25T20:36:50.167Z,1.52
2022-10-25T20:39:17.320Z,1.80
2022-10-25T20:41:44.667Z,1.50
2022-10-25T20:44:12.249Z,2.60
2022-10-25T20:46:39.196Z,1.50
2022-10-25T20:49:07.534Z,1.58
2022-10-25T20:51:35.141Z,1.85
2022-10-25T20:54:05.314Z,1.70
2022-10-25T20:56:32.220Z,2.00
2022-10-25T20:58:59.153Z,1.73
2022-10-25T21:01:26.179Z,1.50
2022-10-25T21:03:54.107Z,1.70
2022-10-25T21:06:21.014Z,2.00
2022-10-25T21:08:47.894Z,2.10
2022-10-25T21:11:14.858Z,1.92
2022-10-25T21:13:42.240Z,1.90
2022-10-25T21:16:14.167Z,2.25
2022-10-25T21:18:42.345Z,2.30
2022-10-25T21:21:13.184Z,1.77
2022-10-25T21:23:40.099Z,2.17
2022-10-25T21:26:08.052Z,2.03
2022-10-25T21:28:37.701Z,1.98
2022-10-25T21:31:15.317Z,1.58
2022-10-25T21:33:50.231Z,1.70
2022-10-25T21:36:18.974Z,1.65
2022-10-25T21:38:45.901Z,1.90
2022-10-25T21:41:19.830Z,1.90
2022-10-25T21:43:48.617Z,2.15
2022-10-25T21:46:17.721Z,2.25
2022-10-25T21:48:47.261Z,2.30
2022-10-25T21:51:14.896Z,2.10
2022-10-25T21:53:42.105Z,1.85
2022-10-25T21:56:17.930Z,2.65
2022-10-25T21:58:47.432Z,2.00
2022-10-25T22:01:16.875Z,2.05
2022-10-25T22:03:44.013Z,2.10
2022-10-25T22:06:13.719Z,2.00
2022-10-25T22:08:41.307Z,2.33
2022-10-25T22:11:12.589Z,1.70
2022-10-25T22:13:39.733Z,2.17
2022-10-25T22:16:12.709Z,2.20
2022-10-25T22:18:40.013Z,2.12
2022-10-25T22:21:09.248Z,2.22
2022-10-25T22:23:36.802Z,1.60
2022-10-25T22:26:09.208Z,2.60
2022-10-25T22:28:39.831Z,1.90
2022-10-25T22:31:17.860Z,2.03
2022-10-25T22:33:45.619Z,1.75
2022-10-25T22:36:14.903Z,1.80
2022-10-25T22:38:42.319Z,2.20
2022-10-25T22:41:14.107Z,1.90
2022-10-25T22:43:41.586Z,2.00
2022-10-25T22:46:11.626Z,1.90
2022-10-25T22:48:40.341Z,2.30
2022-10-25T22:51:08.340Z,2.28
2022-10-25T22:53:37.040Z,2.40
2022-10-25T22:56:25.319Z,1.75
2022-10-25T22:58:54.809Z,2.62
2022-10-25T23:01:27.528Z,1.73
2022-10-25T23:03:56.344Z,1.52
2022-10-25T23:06:26.516Z,2.42
2022-10-25T23:08:54.959Z,1.70
2022-10-25T23:11:24.571Z,2.35
2022-10-25T23:13:51.728Z,2.10
2022-10-25T23:16:19.196Z,1.80
2022-10-25T23:18:46.396Z,1.65
2022-10-25T23:21:25.030Z,2.28
2022-10-25T23:23:53.454Z,1.92
2022-10-25T23:26:25.688Z,2.45
2022-10-25T23:28:52.572Z,2.37
2022-10-25T23:31:19.812Z,2.97
2022-10-25T23:33:51.347Z,2.42
2022-10-25T23:36:19.836Z,1.80
2022-10-25T23:38:48.624Z,2.92
2022-10-25T23:41:16.584Z,2.35
2022-10-25T23:43:43.469Z,2.40
2022-10-25T23:46:11.324Z,2.12
2022-10-25T23:48:38.319Z,2.40
2022-10-25T23:51:10.275Z,2.47
2022-10-25T23:53:37.661Z,2.08
2022-10-25T23:56:07.546Z,2.10
2022-10-25T23:58:34.717Z,2.40
